sensor_id;sensor_type;location;lat;lon;timestamp;temperature;humidity
2625;DHT22;1322;53.256;10.386;2022-12-29T00:01:54;8.90;99.90
2625;DHT22;1322;53.256;10.386;2022-12-29T00:04:20;8.90;99.90
2625;DHT22;1322;53.256;10.386;2022-12-29T00:06:47;9.00;99.90
2625;DHT22;1322;53.256;10.386;2022-12-29T00:09:15;9.00;99.90
2625;DHT22;1322;53.256;10.386;2022-12-29T00:11:43;9.00;99.90
2625;DHT22;1322;53.256;10.386;2022-12-29T00:14:10;9.00;99.90
2625;DHT22;1322;53.256;10.386;2022-12-29T00:16:55;9.00;99.90
2625;DHT22;1322;53.256;10.386;2022-12-29T00:19:21;9.10;99.90
2625;DHT22;1322;53.256;10.386;2022-12-29T00:22:06;9.20;99.90
2625;DHT22;1322;53.256;10.386;2022-12-29T00:24:50;9.20;99.90
2625;DHT22;1322;53.256;10.386;2022-12-29T00:27:19;9.10;99.90
2625;DHT22;1322;53.256;10.386;2022-12-29T00:30:11;8.90;99.90
2625;DHT22;1322;53.256;10.386;2022-12-29T00:32:56;9.10;99.90
2625;DHT22;1322;53.256;10.386;2022-12-29T00:35:57;9.10;99.90
2625;DHT22;1322;53.256;10.386;2022-12-29T00:38:23;9.10;99.90
2625;DHT22;1322;53.256;10.386;2022-12-29T00:41:07;9.10;99.90
2625;DHT22;1322;53.256;10.386;2022-12-29T00:43:52;9.10;99.90
2625;DHT22;1322;53.256;10.386;2022-12-29T00:46:33;9.10;99.90
2625;DHT22;1322;53.256;10.386;2022-12-29T00:48:59;9.10;99.90
2625;DHT22;1322;53.256;10.386;2022-12-29T00:51:44;9.10;99.90
2625;DHT22;1322;53.256;10.386;2022-12-29T00:54:09;9.10;99.90
2625;DHT22;1322;53.256;10.386;2022-12-29T00:56:35;9.20;99.90
2625;DHT22;1322;53.256;10.386;2022-12-29T00:59:03;9.20;99.90
2625;DHT22;1322;53.256;10.386;2022-12-29T01:01:29;9.20;99.90
2625;DHT22;1322;53.256;10.386;2022-12-29T01:03:55;9.20;99.90
2625;DHT22;1322;53.256;10.386;2022-12-29T01:06:21;9.20;99.90
2625;DHT22;1322;53.256;10.386;2022-12-29T01:08:46;9.10;99.90
2625;DHT22;1322;53.256;10.386;2022-12-29T01:11:32;9.10;99.90
2625;DHT22;1322;53.256;10.386;2022-12-29T01:13:58;9.10;99.90
2625;DHT22;1322;53.256;10.386;2022-12-29T01:16:23;9.10;99.90
2625;DHT22;1322;53.256;10.386;2022-12-29T01:18:49;9.00;99.90
2625;DHT22;1322;53.256;10.386;2022-12-29T01:21:14;9.20;99.90
2625;DHT22;1322;53.256;10.386;2022-12-29T01:23:40;9.20;99.90
2625;DHT22;1322;53.256;10.386;2022-12-29T01:26:13;9.20;99.90
2625;DHT22;1322;53.256;10.386;2022-12-29T01:28:39;9.30;99.90
2625;DHT22;1322;53.256;10.386;2022-12-29T01:31:07;9.30;99.90
2625;DHT22;1322;53.256;10.386;2022-12-29T01:33:33;9.30;99.90
2625;DHT22;1322;53.256;10.386;2022-12-29T01:36:02;9.30;99.90
2625;DHT22;1322;53.256;10.386;2022-12-29T01:38:28;9.30;99.90
2625;DHT22;1322;53.256;10.386;2022-12-29T01:40:54;9.30;99.90
2625;DHT22;1322;53.256;10.386;2022-12-29T01:43:20;9.40;99.90
2625;DHT22;1322;53.256;10.386;2022-12-29T01:45:51;9.40;99.90
2625;DHT22;1322;53.256;10.386;2022-12-29T01:48:19;9.40;99.90
2625;DHT22;1322;53.256;10.386;2022-12-29T01:50:54;9.50;99.90
2625;DHT22;1322;53.256;10.386;2022-12-29T01:53:27;9.50;99.90
2625;DHT22;1322;53.256;10.386;2022-12-29T01:55:58;9.50;99.90
2625;DHT22;1322;53.256;10.386;2022-12-29T01:58:29;9.50;99.90
2625;DHT22;1322;53.256;10.386;2022-12-29T02:00:56;9.50;99.90
2625;DHT22;1322;53.256;10.386;2022-12-29T02:03:23;9.60;99.90
2625;DHT22;1322;53.256;10.386;2022-12-29T02:06:17;9.60;99.90
2625;DHT22;1322;53.256;10.386;2022-12-29T02:08:46;9.60;99.90
2625;DHT22;1322;53.256;10.386;2022-12-29T02:11:12;9.70;99.90
2625;DHT22;1322;53.256;10.386;2022-12-29T02:13:38;9.70;99.90
2625;DHT22;1322;53.256;10.386;2022-12-29T02:21:41;9.70;99.90
2625;DHT22;1322;53.256;10.386;2022-12-29T02:32:15;9.80;99.90
2625;DHT22;1322;53.256;10.386;2022-12-29T02:35:09;9.80;99.90
2625;DHT22;1322;53.256;10.386;2022-12-29T02:37:44;9.80;99.90
2625;DHT22;1322;53.256;10.386;2022-12-29T02:42:49;9.80;99.90
2625;DHT22;1322;53.256;10.386;2022-12-29T02:45:21;9.70;99.90
2625;DHT22;1322;53.256;10.386;2022-12-29T02:47:57;9.80;99.90
2625;DHT22;1322;53.256;10.386;2022-12-29T02:50:51;9.90;99.90
2625;DHT22;1322;53.256;10.386;2022-12-29T02:53:20;9.90;99.90
2625;DHT22;1322;53.256;10.386;2022-12-29T02:56:06;9.80;99.90
2625;DHT22;1322;53.256;10.386;2022-12-29T02:58:32;9.90;99.90
2625;DHT22;1322;53.256;10.386;2022-12-29T03:01:23;9.90;99.90
2625;DHT22;1322;53.256;10.386;2022-12-29T03:04:15;9.90;99.90
2625;DHT22;1322;53.256;10.386;2022-12-29T03:06:59;10.00;99.90
2625;DHT22;1322;53.256;10.386;2022-12-29T03:09:43;9.90;99.90
2625;DHT22;1322;53.256;10.386;2022-12-29T03:15:10;10.00;99.90
2625;DHT22;1322;53.256;10.386;2022-12-29T03:18:12;10.00;99.90
2625;DHT22;1322;53.256;10.386;2022-12-29T03:20:48;9.90;99.90
2625;DHT22;1322;53.256;10.386;2022-12-29T03:23:16;10.00;99.90
2625;DHT22;1322;53.256;10.386;2022-12-29T03:25:51;10.00;99.90
2625;DHT22;1322;53.256;10.386;2022-12-29T03:28:22;10.00;99.90
2625;DHT22;1322;53.256;10.386;2022-12-29T03:30:48;10.00;99.90
2625;DHT22;1322;53.256;10.386;2022-12-29T03:33:18;10.00;99.90
2625;DHT22;1322;53.256;10.386;2022-12-29T03:35:46;9.90;99.90
2625;DHT22;1322;53.256;10.386;2022-12-29T03:38:27;10.00;99.90
2625;DHT22;1322;53.256;10.386;2022-12-29T03:40:58;10.00;99.90
2625;DHT22;1322;53.256;10.386;2022-12-29T03:43:25;10.00;99.90
2625;DHT22;1322;53.256;10.386;2022-12-29T03:45:51;10.10;99.90
2625;DHT22;1322;53.256;10.386;2022-12-29T03:48:16;10.00;99.90
2625;DHT22;1322;53.256;10.386;2022-12-29T03:50:42;10.10;99.90
2625;DHT22;1322;53.256;10.386;2022-12-29T03:53:08;10.10;99.90
2625;DHT22;1322;53.256;10.386;2022-12-29T03:55:33;10.20;99.90
2625;DHT22;1322;53.256;10.386;2022-12-29T03:57:59;10.20;99.90
2625;DHT22;1322;53.256;10.386;2022-12-29T04:00:25;10.20;99.90
2625;DHT22;1322;53.256;10.386;2022-12-29T04:02:51;10.10;99.90
2625;DHT22;1322;53.256;10.386;2022-12-29T04:05:17;10.20;99.90
2625;DHT22;1322;53.256;10.386;2022-12-29T04:07:43;10.20;99.90
2625;DHT22;1322;53.256;10.386;2022-12-29T04:10:08;10.20;99.90
2625;DHT22;1322;53.256;10.386;2022-12-29T04:12:34;10.10;99.90
2625;DHT22;1322;53.256;10.386;2022-12-29T04:15:00;10.00;99.90
2625;DHT22;1322;53.256;10.386;2022-12-29T04:17:25;10.10;99.90
2625;DHT22;1322;53.256;10.386;2022-12-29T04:19:51;10.10;99.90
2625;DHT22;1322;53.256;10.386;2022-12-29T04:22:16;10.10;99.90
2625;DHT22;1322;53.256;10.386;2022-12-29T04:24:42;10.10;99.90
2625;DHT22;1322;53.256;10.386;2022-12-29T04:27:08;10.20;99.90
2625;DHT22;1322;53.256;10.386;2022-12-29T04:29:33;10.10;99.90
2625;DHT22;1322;53.256;10.386;2022-12-29T04:31:59;10.10;99.90
2625;DHT22;1322;53.256;10.386;2022-12-29T04:34:25;10.10;99.90
2625;DHT22;1322;53.256;10.386;2022-12-29T04:36:50;10.10;99.90
2625;DHT22;1322;53.256;10.386;2022-12-29T04:39:16;10.20;99.90
2625;DHT22;1322;53.256;10.386;2022-12-29T04:41:41;10.10;99.90
2625;DHT22;1322;53.256;10.386;2022-12-29T04:44:07;10.10;99.90
2625;DHT22;1322;53.256;10.386;2022-12-29T04:46:33;10.20;99.90
2625;DHT22;1322;53.256;10.386;2022-12-29T04:48:58;10.20;99.90
2625;DHT22;1322;53.256;10.386;2022-12-29T04:51:26;10.20;99.90
2625;DHT22;1322;53.256;10.386;2022-12-29T04:53:51;10.20;99.90
2625;DHT22;1322;53.256;10.386;2022-12-29T04:56:17;10.20;99.90
2625;DHT22;1322;53.256;10.386;2022-12-29T04:58:42;10.30;99.90
2625;DHT22;1322;53.256;10.386;2022-12-29T05:01:08;10.30;99.90
2625;DHT22;1322;53.256;10.386;2022-12-29T05:03:34;10.30;99.90
2625;DHT22;1322;53.256;10.386;2022-12-29T05:05:59;10.20;99.90
2625;DHT22;1322;53.256;10.386;2022-12-29T05:08:25;10.20;99.90
2625;DHT22;1322;53.256;10.386;2022-12-29T05:10:51;10.30;99.90
2625;DHT22;1322;53.256;10.386;2022-12-29T05:13:17;10.20;99.90
2625;DHT22;1322;53.256;10.386;2022-12-29T05:15:51;10.20;99.90
2625;DHT22;1322;53.256;10.386;2022-12-29T05:18:17;10.30;99.90
2625;DHT22;1322;53.256;10.386;2022-12-29T05:20:43;10.30;99.90
2625;DHT22;1322;53.256;10.386;2022-12-29T05:23:09;10.30;99.90
2625;DHT22;1322;53.256;10.386;2022-12-29T05:25:35;10.30;99.90
2625;DHT22;1322;53.256;10.386;2022-12-29T05:28:00;10.20;99.90
2625;DHT22;1322;53.256;10.386;2022-12-29T05:30:26;10.30;99.90
2625;DHT22;1322;53.256;10.386;2022-12-29T05:32:51;10.30;99.90
2625;DHT22;1322;53.256;10.386;2022-12-29T05:35:17;10.20;99.90
2625;DHT22;1322;53.256;10.386;2022-12-29T05:37:43;10.30;99.90
2625;DHT22;1322;53.256;10.386;2022-12-29T05:40:09;10.30;99.90
2625;DHT22;1322;53.256;10.386;2022-12-29T05:42:34;10.30;99.90
2625;DHT22;1322;53.256;10.386;2022-12-29T05:45:00;10.20;99.90
2625;DHT22;1322;53.256;10.386;2022-12-29T05:47:25;10.30;99.90
2625;DHT22;1322;53.256;10.386;2022-12-29T05:49:51;10.30;99.90
2625;DHT22;1322;53.256;10.386;2022-12-29T05:52:17;10.30;99.90
2625;DHT22;1322;53.256;10.386;2022-12-29T05:54:43;10.30;99.90
2625;DHT22;1322;53.256;10.386;2022-12-29T05:57:09;10.30;99.90
2625;DHT22;1322;53.256;10.386;2022-12-29T05:59:35;10.20;99.90
2625;DHT22;1322;53.256;10.386;2022-12-29T06:02:01;10.30;99.90
2625;DHT22;1322;53.256;10.386;2022-12-29T06:04:26;10.30;99.90
2625;DHT22;1322;53.256;10.386;2022-12-29T06:06:52;10.30;99.90
2625;DHT22;1322;53.256;10.386;2022-12-29T06:09:18;10.40;99.90
2625;DHT22;1322;53.256;10.386;2022-12-29T06:11:43;10.40;99.90
2625;DHT22;1322;53.256;10.386;2022-12-29T06:14:09;10.40;99.90
2625;DHT22;1322;53.256;10.386;2022-12-29T06:16:35;10.40;99.90
2625;DHT22;1322;53.256;10.386;2022-12-29T06:19:01;10.40;99.90
2625;DHT22;1322;53.256;10.386;2022-12-29T06:21:27;10.50;99.90
2625;DHT22;1322;53.256;10.386;2022-12-29T06:23:53;10.60;99.90
2625;DHT22;1322;53.256;10.386;2022-12-29T06:26:19;10.50;99.90
2625;DHT22;1322;53.256;10.386;2022-12-29T06:28:45;10.50;99.90
2625;DHT22;1322;53.256;10.386;2022-12-29T06:31:10;10.50;99.90
2625;DHT22;1322;53.256;10.386;2022-12-29T06:33:37;10.40;99.90
2625;DHT22;1322;53.256;10.386;2022-12-29T06:36:03;10.40;99.90
2625;DHT22;1322;53.256;10.386;2022-12-29T06:38:29;10.40;99.90
2625;DHT22;1322;53.256;10.386;2022-12-29T06:40:54;10.50;99.90
2625;DHT22;1322;53.256;10.386;2022-12-29T06:43:20;10.50;99.90
2625;DHT22;1322;53.256;10.386;2022-12-29T06:45:46;10.40;99.90
2625;DHT22;1322;53.256;10.386;2022-12-29T06:48:11;10.40;99.90
2625;DHT22;1322;53.256;10.386;2022-12-29T06:50:37;10.50;99.90
2625;DHT22;1322;53.256;10.386;2022-12-29T06:53:03;10.50;99.90
2625;DHT22;1322;53.256;10.386;2022-12-29T06:55:29;10.30;99.90
2625;DHT22;1322;53.256;10.386;2022-12-29T06:57:56;10.30;99.90
2625;DHT22;1322;53.256;10.386;2022-12-29T07:00:22;10.30;99.90
2625;DHT22;1322;53.256;10.386;2022-12-29T07:02:47;10.30;99.90
2625;DHT22;1322;53.256;10.386;2022-12-29T07:05:13;10.30;99.90
2625;DHT22;1322;53.256;10.386;2022-12-29T07:07:39;10.30;99.90
2625;DHT22;1322;53.256;10.386;2022-12-29T07:10:05;10.50;99.90
2625;DHT22;1322;53.256;10.386;2022-12-29T07:12:30;10.40;99.90
2625;DHT22;1322;53.256;10.386;2022-12-29T07:14:56;10.40;99.90
2625;DHT22;1322;53.256;10.386;2022-12-29T07:17:21;10.50;99.90
2625;DHT22;1322;53.256;10.386;2022-12-29T07:19:47;10.50;99.90
2625;DHT22;1322;53.256;10.386;2022-12-29T07:22:13;10.60;99.90
2625;DHT22;1322;53.256;10.386;2022-12-29T07:24:38;10.60;99.90
2625;DHT22;1322;53.256;10.386;2022-12-29T07:27:04;10.60;99.90
2625;DHT22;1322;53.256;10.386;2022-12-29T07:29:30;10.60;99.90
2625;DHT22;1322;53.256;10.386;2022-12-29T07:31:55;10.50;99.90
2625;DHT22;1322;53.256;10.386;2022-12-29T07:34:21;10.50;99.90
2625;DHT22;1322;53.256;10.386;2022-12-29T07:36:47;10.50;99.90
2625;DHT22;1322;53.256;10.386;2022-12-29T07:39:12;10.60;99.90
2625;DHT22;1322;53.256;10.386;2022-12-29T07:41:38;10.60;99.90
2625;DHT22;1322;53.256;10.386;2022-12-29T07:44:04;10.50;99.90
2625;DHT22;1322;53.256;10.386;2022-12-29T07:46:29;10.50;99.90
2625;DHT22;1322;53.256;10.386;2022-12-29T07:48:55;10.60;99.90
2625;DHT22;1322;53.256;10.386;2022-12-29T07:51:20;10.50;99.90
2625;DHT22;1322;53.256;10.386;2022-12-29T07:53:46;10.50;99.90
2625;DHT22;1322;53.256;10.386;2022-12-29T07:56:12;10.50;99.90
2625;DHT22;1322;53.256;10.386;2022-12-29T07:58:37;10.50;99.90
2625;DHT22;1322;53.256;10.386;2022-12-29T08:01:03;10.50;99.90
2625;DHT22;1322;53.256;10.386;2022-12-29T08:03:29;10.40;99.90
2625;DHT22;1322;53.256;10.386;2022-12-29T08:05:54;10.40;99.90
2625;DHT22;1322;53.256;10.386;2022-12-29T08:08:21;10.40;99.90
2625;DHT22;1322;53.256;10.386;2022-12-29T08:10:47;10.40;99.90
2625;DHT22;1322;53.256;10.386;2022-12-29T08:13:13;10.40;99.90
2625;DHT22;1322;53.256;10.386;2022-12-29T08:15:38;10.30;99.90
2625;DHT22;1322;53.256;10.386;2022-12-29T08:18:04;10.40;99.90
2625;DHT22;1322;53.256;10.386;2022-12-29T08:20:30;10.30;99.90
2625;DHT22;1322;53.256;10.386;2022-12-29T08:22:56;10.30;99.90
2625;DHT22;1322;53.256;10.386;2022-12-29T08:25:21;10.30;99.90
2625;DHT22;1322;53.256;10.386;2022-12-29T08:27:47;10.30;99.90
2625;DHT22;1322;53.256;10.386;2022-12-29T08:30:13;10.30;99.90
2625;DHT22;1322;53.256;10.386;2022-12-29T08:32:38;10.30;99.90
2625;DHT22;1322;53.256;10.386;2022-12-29T08:35:04;10.30;99.90
2625;DHT22;1322;53.256;10.386;2022-12-29T08:37:32;10.30;99.90
2625;DHT22;1322;53.256;10.386;2022-12-29T08:39:58;10.30;99.90
2625;DHT22;1322;53.256;10.386;2022-12-29T08:42:25;10.20;99.90
2625;DHT22;1322;53.256;10.386;2022-12-29T08:44:56;10.20;99.90
2625;DHT22;1322;53.256;10.386;2022-12-29T08:47:22;10.10;99.90
2625;DHT22;1322;53.256;10.386;2022-12-29T08:49:47;10.10;99.90
2625;DHT22;1322;53.256;10.386;2022-12-29T08:52:13;10.00;99.90
2625;DHT22;1322;53.256;10.386;2022-12-29T08:54:39;10.00;99.90
2625;DHT22;1322;53.256;10.386;2022-12-29T08:57:04;10.00;99.90
2625;DHT22;1322;53.256;10.386;2022-12-29T08:59:30;10.00;99.90
2625;DHT22;1322;53.256;10.386;2022-12-29T09:01:55;10.00;99.90
2625;DHT22;1322;53.256;10.386;2022-12-29T09:04:21;10.00;99.90
2625;DHT22;1322;53.256;10.386;2022-12-29T09:06:49;10.00;99.90
2625;DHT22;1322;53.256;10.386;2022-12-29T09:09:14;10.10;99.90
2625;DHT22;1322;53.256;10.386;2022-12-29T09:11:41;10.10;99.90
2625;DHT22;1322;53.256;10.386;2022-12-29T09:14:07;10.10;99.90
2625;DHT22;1322;53.256;10.386;2022-12-29T09:16:34;10.20;99.90
2625;DHT22;1322;53.256;10.386;2022-12-29T09:19:00;10.20;99.90
2625;DHT22;1322;53.256;10.386;2022-12-29T09:21:26;10.10;99.90
2625;DHT22;1322;53.256;10.386;2022-12-29T09:23:51;10.10;99.90
2625;DHT22;1322;53.256;10.386;2022-12-29T09:26:17;10.10;99.90
2625;DHT22;1322;53.256;10.386;2022-12-29T09:28:43;10.10;99.90
2625;DHT22;1322;53.256;10.386;2022-12-29T09:31:09;10.10;99.90
2625;DHT22;1322;53.256;10.386;2022-12-29T09:33:35;10.20;99.90
2625;DHT22;1322;53.256;10.386;2022-12-29T09:36:02;10.20;99.90
2625;DHT22;1322;53.256;10.386;2022-12-29T09:38:28;10.30;99.90
2625;DHT22;1322;53.256;10.386;2022-12-29T09:40:56;10.30;99.90
2625;DHT22;1322;53.256;10.386;2022-12-29T09:43:51;10.20;99.90
2625;DHT22;1322;53.256;10.386;2022-12-29T09:46:37;10.20;99.90
2625;DHT22;1322;53.256;10.386;2022-12-29T09:52:14;10.30;99.90
2625;DHT22;1322;53.256;10.386;2022-12-29T09:55:21;10.30;99.90
2625;DHT22;1322;53.256;10.386;2022-12-29T09:57:54;10.30;99.90
2625;DHT22;1322;53.256;10.386;2022-12-29T10:00:36;10.40;99.90
2625;DHT22;1322;53.256;10.386;2022-12-29T10:03:16;10.40;99.90
2625;DHT22;1322;53.256;10.386;2022-12-29T10:09:22;10.50;99.90
2625;DHT22;1322;53.256;10.386;2022-12-29T10:23:31;10.80;99.90
2625;DHT22;1322;53.256;10.386;2022-12-29T10:25:58;10.80;99.90
2625;DHT22;1322;53.256;10.386;2022-12-29T10:28:48;10.80;99.90
2625;DHT22;1322;53.256;10.386;2022-12-29T10:31:35;10.70;99.90
2625;DHT22;1322;53.256;10.386;2022-12-29T10:34:10;10.70;99.90
2625;DHT22;1322;53.256;10.386;2022-12-29T10:36:42;10.70;99.90
2625;DHT22;1322;53.256;10.386;2022-12-29T10:39:16;10.70;99.90
2625;DHT22;1322;53.256;10.386;2022-12-29T10:41:55;10.80;99.90
2625;DHT22;1322;53.256;10.386;2022-12-29T10:44:27;10.80;99.90
2625;DHT22;1322;53.256;10.386;2022-12-29T10:47:02;10.80;99.90
2625;DHT22;1322;53.256;10.386;2022-12-29T10:49:30;10.90;99.90
2625;DHT22;1322;53.256;10.386;2022-12-29T10:51:59;10.80;99.90
2625;DHT22;1322;53.256;10.386;2022-12-29T10:54:50;10.80;99.90
2625;DHT22;1322;53.256;10.386;2022-12-29T10:57:21;10.80;99.90
2625;DHT22;1322;53.256;10.386;2022-12-29T10:59:48;10.90;99.90
2625;DHT22;1322;53.256;10.386;2022-12-29T11:02:25;10.90;99.90
2625;DHT22;1322;53.256;10.386;2022-12-29T11:07:59;11.20;99.90
2625;DHT22;1322;53.256;10.386;2022-12-29T11:13:18;11.50;99.90
2625;DHT22;1322;53.256;10.386;2022-12-29T11:15:46;11.50;99.90
2625;DHT22;1322;53.256;10.386;2022-12-29T11:18:23;11.70;99.90
2625;DHT22;1322;53.256;10.386;2022-12-29T11:20:55;11.80;99.90
2625;DHT22;1322;53.256;10.386;2022-12-29T11:23:33;11.90;99.90
2625;DHT22;1322;53.256;10.386;2022-12-29T11:28:41;12.20;99.90
2625;DHT22;1322;53.256;10.386;2022-12-29T11:31:09;12.30;99.90
2625;DHT22;1322;53.256;10.386;2022-12-29T11:33:37;12.30;99.90
2625;DHT22;1322;53.256;10.386;2022-12-29T11:36:06;12.30;99.90
2625;DHT22;1322;53.256;10.386;2022-12-29T11:38:36;12.30;99.90
2625;DHT22;1322;53.256;10.386;2022-12-29T11:41:03;12.20;99.90
2625;DHT22;1322;53.256;10.386;2022-12-29T11:45:59;12.10;99.90
2625;DHT22;1322;53.256;10.386;2022-12-29T11:48:30;12.10;99.90
2625;DHT22;1322;53.256;10.386;2022-12-29T11:50:58;12.10;99.90
2625;DHT22;1322;53.256;10.386;2022-12-29T11:53:30;12.00;99.90
2625;DHT22;1322;53.256;10.386;2022-12-29T11:56:14;12.00;99.90
2625;DHT22;1322;53.256;10.386;2022-12-29T11:58:43;11.80;99.90
2625;DHT22;1322;53.256;10.386;2022-12-29T12:01:35;11.90;99.90
2625;DHT22;1322;53.256;10.386;2022-12-29T12:04:08;11.90;99.90
2625;DHT22;1322;53.256;10.386;2022-12-29T12:06:44;11.90;99.90
2625;DHT22;1322;53.256;10.386;2022-12-29T12:09:23;11.90;99.90
2625;DHT22;1322;53.256;10.386;2022-12-29T12:11:54;11.90;99.90
2625;DHT22;1322;53.256;10.386;2022-12-29T12:14:30;11.90;99.90
2625;DHT22;1322;53.256;10.386;2022-12-29T12:17:04;12.00;99.90
2625;DHT22;1322;53.256;10.386;2022-12-29T12:23:13;11.90;99.90
2625;DHT22;1322;53.256;10.386;2022-12-29T12:25:20;11.90;99.90
2625;DHT22;1322;53.256;10.386;2022-12-29T12:30:37;11.80;99.90
2625;DHT22;1322;53.256;10.386;2022-12-29T12:39:05;12.00;99.90
2625;DHT22;1322;53.256;10.386;2022-12-29T12:50:22;12.00;99.90
2625;DHT22;1322;53.256;10.386;2022-12-29T12:55:57;12.00;99.90
2625;DHT22;1322;53.256;10.386;2022-12-29T13:01:33;12.00;99.90
2625;DHT22;1322;53.256;10.386;2022-12-29T13:20:34;11.80;99.90
2625;DHT22;1322;53.256;10.386;2022-12-29T13:34:47;11.80;99.90
2625;DHT22;1322;53.256;10.386;2022-12-29T13:37:17;11.70;99.90
2625;DHT22;1322;53.256;10.386;2022-12-29T13:40:00;11.80;99.90
2625;DHT22;1322;53.256;10.386;2022-12-29T13:42:26;11.90;99.90
2625;DHT22;1322;53.256;10.386;2022-12-29T13:45:05;12.00;99.90
2625;DHT22;1322;53.256;10.386;2022-12-29T13:47:41;12.10;99.90
2625;DHT22;1322;53.256;10.386;2022-12-29T13:50:15;12.10;99.90
2625;DHT22;1322;53.256;10.386;2022-12-29T14:03:56;12.00;99.90
2625;DHT22;1322;53.256;10.386;2022-12-29T14:06:33;12.30;99.90
2625;DHT22;1322;53.256;10.386;2022-12-29T14:09:04;11.50;99.90
2625;DHT22;1322;53.256;10.386;2022-12-29T14:11:36;11.80;99.90
2625;DHT22;1322;53.256;10.386;2022-12-29T14:14:17;11.80;99.90
2625;DHT22;1322;53.256;10.386;2022-12-29T14:16:45;11.80;99.90
2625;DHT22;1322;53.256;10.386;2022-12-29T14:19:22;11.80;99.90
2625;DHT22;1322;53.256;10.386;2022-12-29T14:22:00;12.20;99.90
2625;DHT22;1322;53.256;10.386;2022-12-29T14:34:53;11.70;99.90
2625;DHT22;1322;53.256;10.386;2022-12-29T14:37:35;11.70;99.90
2625;DHT22;1322;53.256;10.386;2022-12-29T14:40:24;11.70;99.90
2625;DHT22;1322;53.256;10.386;2022-12-29T14:42:54;11.70;99.90
2625;DHT22;1322;53.256;10.386;2022-12-29T14:47:47;11.60;99.90
2625;DHT22;1322;53.256;10.386;2022-12-29T14:57:41;11.20;99.90
2625;DHT22;1322;53.256;10.386;2022-12-29T15:02:40;11.20;99.90
2625;DHT22;1322;53.256;10.386;2022-12-29T15:05:32;11.10;99.90
2625;DHT22;1322;53.256;10.386;2022-12-29T15:08:00;11.20;99.90
2625;DHT22;1322;53.256;10.386;2022-12-29T15:10:34;11.10;99.90
2625;DHT22;1322;53.256;10.386;2022-12-29T15:13:05;11.00;99.90
2625;DHT22;1322;53.256;10.386;2022-12-29T15:15:37;10.90;99.90
2625;DHT22;1322;53.256;10.386;2022-12-29T15:18:24;10.90;99.90
2625;DHT22;1322;53.256;10.386;2022-12-29T15:21:11;10.90;99.90
2625;DHT22;1322;53.256;10.386;2022-12-29T15:23:38;10.70;99.90
2625;DHT22;1322;53.256;10.386;2022-12-29T15:26:06;10.70;99.90
2625;DHT22;1322;53.256;10.386;2022-12-29T15:28:41;10.70;99.90
2625;DHT22;1322;53.256;10.386;2022-12-29T15:31:21;10.50;99.90
2625;DHT22;1322;53.256;10.386;2022-12-29T15:33:51;10.60;99.90
2625;DHT22;1322;53.256;10.386;2022-12-29T15:36:25;10.50;99.90
2625;DHT22;1322;53.256;10.386;2022-12-29T15:38:51;10.40;99.90
2625;DHT22;1322;53.256;10.386;2022-12-29T15:41:39;10.30;99.90
2625;DHT22;1322;53.256;10.386;2022-12-29T15:44:34;10.30;99.90
2625;DHT22;1322;53.256;10.386;2022-12-29T15:47:06;10.30;99.90
2625;DHT22;1322;53.256;10.386;2022-12-29T15:49:37;10.30;99.90
2625;DHT22;1322;53.256;10.386;2022-12-29T15:52:07;10.30;99.90
2625;DHT22;1322;53.256;10.386;2022-12-29T15:54:33;10.30;99.90
2625;DHT22;1322;53.256;10.386;2022-12-29T15:56:59;10.20;99.90
2625;DHT22;1322;53.256;10.386;2022-12-29T15:59:33;10.20;99.90
2625;DHT22;1322;53.256;10.386;2022-12-29T16:02:00;10.20;99.90
2625;DHT22;1322;53.256;10.386;2022-12-29T16:04:30;10.20;99.90
2625;DHT22;1322;53.256;10.386;2022-12-29T16:07:02;10.20;99.90
2625;DHT22;1322;53.256;10.386;2022-12-29T16:09:40;10.10;99.90
2625;DHT22;1322;53.256;10.386;2022-12-29T16:12:17;10.00;99.90
2625;DHT22;1322;53.256;10.386;2022-12-29T16:14:54;10.00;99.90
2625;DHT22;1322;53.256;10.386;2022-12-29T16:17:29;10.00;99.90
2625;DHT22;1322;53.256;10.386;2022-12-29T16:20:23;10.00;99.90
2625;DHT22;1322;53.256;10.386;2022-12-29T16:22:52;10.00;99.90
2625;DHT22;1322;53.256;10.386;2022-12-29T16:25:31;10.00;99.90
2625;DHT22;1322;53.256;10.386;2022-12-29T16:27:58;10.10;99.90
2625;DHT22;1322;53.256;10.386;2022-12-29T16:30:26;10.20;99.90
2625;DHT22;1322;53.256;10.386;2022-12-29T16:32:58;10.20;99.90
2625;DHT22;1322;53.256;10.386;2022-12-29T16:38:19;10.20;99.90
2625;DHT22;1322;53.256;10.386;2022-12-29T16:40:57;10.20;99.90
2625;DHT22;1322;53.256;10.386;2022-12-29T16:43:28;10.30;99.90
2625;DHT22;1322;53.256;10.386;2022-12-29T16:48:35;10.40;99.90
2625;DHT22;1322;53.256;10.386;2022-12-29T16:51:12;10.50;99.90
2625;DHT22;1322;53.256;10.386;2022-12-29T16:53:40;10.50;99.90
2625;DHT22;1322;53.256;10.386;2022-12-29T16:56:19;10.50;99.90
2625;DHT22;1322;53.256;10.386;2022-12-29T16:58:50;10.50;99.90
2625;DHT22;1322;53.256;10.386;2022-12-29T17:01:19;10.50;99.90
2625;DHT22;1322;53.256;10.386;2022-12-29T17:03:54;10.50;99.90
2625;DHT22;1322;53.256;10.386;2022-12-29T17:06:22;10.60;99.90
2625;DHT22;1322;53.256;10.386;2022-12-29T17:08:48;10.70;99.90
2625;DHT22;1322;53.256;10.386;2022-12-29T17:11:34;10.70;99.90
2625;DHT22;1322;53.256;10.386;2022-12-29T17:16:53;10.60;99.90
2625;DHT22;1322;53.256;10.386;2022-12-29T17:19:21;10.60;99.90
2625;DHT22;1322;53.256;10.386;2022-12-29T17:21:48;10.60;99.90
2625;DHT22;1322;53.256;10.386;2022-12-29T17:24:16;10.50;99.90
2625;DHT22;1322;53.256;10.386;2022-12-29T17:26:53;10.40;99.90
2625;DHT22;1322;53.256;10.386;2022-12-29T17:29:40;10.40;99.90
2625;DHT22;1322;53.256;10.386;2022-12-29T17:32:12;10.40;99.90
2625;DHT22;1322;53.256;10.386;2022-12-29T17:34:39;10.30;99.90
2625;DHT22;1322;53.256;10.386;2022-12-29T17:39:48;10.10;99.90
2625;DHT22;1322;53.256;10.386;2022-12-29T17:42:14;10.00;99.90
2625;DHT22;1322;53.256;10.386;2022-12-29T17:44:41;10.00;99.90
2625;DHT22;1322;53.256;10.386;2022-12-29T17:47:09;9.80;99.90
2625;DHT22;1322;53.256;10.386;2022-12-29T17:49:35;9.80;99.90
2625;DHT22;1322;53.256;10.386;2022-12-29T17:52:01;9.80;99.90
2625;DHT22;1322;53.256;10.386;2022-12-29T17:54:27;9.80;99.90
2625;DHT22;1322;53.256;10.386;2022-12-29T17:56:52;9.90;99.90
2625;DHT22;1322;53.256;10.386;2022-12-29T17:59:18;10.00;99.90
2625;DHT22;1322;53.256;10.386;2022-12-29T18:01:46;9.90;99.90
2625;DHT22;1322;53.256;10.386;2022-12-29T18:04:14;10.00;99.90
2625;DHT22;1322;53.256;10.386;2022-12-29T18:06:41;10.10;99.90
2625;DHT22;1322;53.256;10.386;2022-12-29T18:09:07;10.10;99.90
2625;DHT22;1322;53.256;10.386;2022-12-29T18:11:37;10.10;99.90
2625;DHT22;1322;53.256;10.386;2022-12-29T18:14:03;10.20;99.90
2625;DHT22;1322;53.256;10.386;2022-12-29T18:16:29;10.20;99.90
2625;DHT22;1322;53.256;10.386;2022-12-29T18:18:54;10.20;99.90
2625;DHT22;1322;53.256;10.386;2022-12-29T18:21:21;10.20;99.90
2625;DHT22;1322;53.256;10.386;2022-12-29T18:23:47;10.10;99.90
2625;DHT22;1322;53.256;10.386;2022-12-29T18:28:43;9.90;99.90
2625;DHT22;1322;53.256;10.386;2022-12-29T18:33:49;9.80;99.90
2625;DHT22;1322;53.256;10.386;2022-12-29T18:36:16;9.70;99.90
2625;DHT22;1322;53.256;10.386;2022-12-29T18:38:43;9.70;99.90
2625;DHT22;1322;53.256;10.386;2022-12-29T18:41:29;9.70;99.90
2625;DHT22;1322;53.256;10.386;2022-12-29T18:43:55;9.70;99.90